»·PEaware :: DIHNF KOTH-KSIY

DIHNF :: KOTH-KSIY

FLIGHT INFORMATION

Flight Status: Arrived
Operator: Unknown
More flights by this operator :: More flights under this callsign
Pilot: Klaus A. (15485)
Aircraft: BEECH AIRCRAFT BARON
(BE58)
More flights by this aircraft type
Origin: KOTH North Bend Mun
United States
Destination: KSIY Siskiyou Co
United States
More flights between these airports :: More routes between these airports
Route: +OTH6 DEROY DEROY V287 KOLER V495 FJS GRENA
File this flight plan on PilotEdge
Remarks: / G Newbie Custom Weather
Altitude:
(Current/Filed)
13,000ft
Speed:
(Current/Filed)
170kts
Departed: 09-Apr-18 07:45 AM
Arrived: 09-Apr-18 08:47 AM
Distance/Time
Traveled:
126nm/1:02
Distance/Time
To Go:
Arrived

Flight Plot

Page will automatically refresh every two minutes.

Flight plan parsing failed; only flown route is shown


Map Options




Map Legend


Flown Route
Filed Route
Departure Airport
Arrival Airport
Navaid (VOR, NDB)
Fix

Horizontal Profiles

Position Reports

Time Latitude Longitude Heading Altitude Ground
Speed
09-Apr-18 07:25 43.415416 -124.245423 332 18ft 0kts
09-Apr-18 07:26 43.415416 -124.245423 332 18ft 0kts
09-Apr-18 07:27 43.415416 -124.245423 332 18ft 0kts
09-Apr-18 07:28 43.415416 -124.245423 332 18ft 0kts
09-Apr-18 07:29 43.415416 -124.245423 332 18ft 0kts
09-Apr-18 07:30 43.415416 -124.245423 332 18ft 0kts
09-Apr-18 07:31 43.415416 -124.245423 332 18ft 0kts
09-Apr-18 07:32 43.415416 -124.245423 332 18ft 0kts
09-Apr-18 07:33 43.415416 -124.245423 332 18ft 0kts
09-Apr-18 07:34 43.415416 -124.245423 332 18ft 0kts
09-Apr-18 07:35 43.415416 -124.245423 332 18ft 0kts
09-Apr-18 07:36 43.415416 -124.245423 332 18ft 0kts
09-Apr-18 07:37 43.415416 -124.245423 332 18ft 0kts
09-Apr-18 07:38 43.418096 -124.246293 330 18ft 16kts
09-Apr-18 07:39 43.419942 -124.244787 60 18ft 23kts
09-Apr-18 07:40 43.422016 -124.240571 329 18ft 0kts
09-Apr-18 07:41 43.422016 -124.240571 329 18ft 0kts
09-Apr-18 07:42 43.422016 -124.240571 329 18ft 0kts
09-Apr-18 07:43 43.422016 -124.240571 329 18ft 0kts
09-Apr-18 07:44 43.417317 -124.254332 239 255ft 116kts
09-Apr-18 07:45 43.413957 -124.297289 249 2296ft 117kts
09-Apr-18 07:46 43.425837 -124.287195 127 3929ft 139kts
09-Apr-18 07:47 43.413444 -124.237821 89 5524ft 142kts
09-Apr-18 07:48 43.414813 -124.182150 90 6894ft 146kts
09-Apr-18 07:49 43.393958 -124.141526 149 8173ft 130kts
09-Apr-18 07:50 43.367564 -124.103438 140 9206ft 141kts
09-Apr-18 07:51 43.339780 -124.064857 140 10216ft 144kts
09-Apr-18 07:52 43.311809 -124.026456 141 11163ft 142kts
09-Apr-18 07:53 43.283446 -123.987758 142 11946ft 145kts
09-Apr-18 07:54 43.254516 -123.948324 142 12717ft 148kts
09-Apr-18 07:55 43.223347 -123.906139 141 13004ft 173kts
09-Apr-18 07:56 43.189481 -123.860076 141 12997ft 181kts
09-Apr-18 07:57 43.153822 -123.811672 141 13024ft 181kts
09-Apr-18 07:58 43.117798 -123.762913 141 13024ft 183kts
09-Apr-18 07:59 43.081602 -123.714012 141 13024ft 183kts
09-Apr-18 08:00 43.045363 -123.665136 140 13016ft 183kts
09-Apr-18 08:01 43.009316 -123.616581 140 13015ft 181kts
09-Apr-18 08:02 42.973284 -123.568146 140 13015ft 182kts
09-Apr-18 08:03 42.936506 -123.518850 140 12970ft 189kts
09-Apr-18 08:04 42.899195 -123.468857 140 12952ft 188kts
09-Apr-18 08:05 42.861854 -123.418937 140 12953ft 188kts
09-Apr-18 08:06 42.824499 -123.369091 140 12953ft 188kts
09-Apr-18 08:07 42.787298 -123.319524 141 12950ft 188kts
09-Apr-18 08:08 42.749914 -123.269814 141 12950ft 187kts
09-Apr-18 08:09 42.712581 -123.220283 140 12951ft 188kts
09-Apr-18 08:10 42.675103 -123.170605 140 12951ft 188kts
09-Apr-18 08:11 42.637613 -123.121012 140 12951ft 188kts
09-Apr-18 08:12 42.600115 -123.071497 140 12951ft 188kts
09-Apr-18 08:13 42.562731 -123.022199 140 13020ft 186kts
09-Apr-18 08:14 42.525398 -122.973102 140 13024ft 188kts
09-Apr-18 08:15 42.487779 -122.923693 140 13003ft 189kts
09-Apr-18 08:16 42.442784 -122.891810 162 12997ft 182kts
09-Apr-18 08:17 42.396092 -122.865121 162 12997ft 182kts
09-Apr-18 08:18 42.349286 -122.838385 162 12997ft 182kts
09-Apr-18 08:19 42.302528 -122.811718 162 12997ft 182kts
09-Apr-18 08:20 42.255911 -122.785172 162 12997ft 182kts
09-Apr-18 08:21 42.209214 -122.758380 160 12997ft 182kts
09-Apr-18 08:22 42.162646 -122.731402 161 12997ft 183kts
09-Apr-18 08:23 42.115625 -122.704244 161 12997ft 185kts
09-Apr-18 08:24 42.068217 -122.676909 161 12997ft 185kts
09-Apr-18 08:25 42.021062 -122.649752 161 13024ft 185kts
09-Apr-18 08:26 41.973729 -122.622554 161 13019ft 186kts
09-Apr-18 08:27 41.926204 -122.596006 164 13019ft 184kts
09-Apr-18 08:28 41.877256 -122.568417 160 12456ft 196kts
09-Apr-18 08:29 41.827869 -122.539869 159 11576ft 189kts
09-Apr-18 08:30 41.780281 -122.512360 159 10830ft 178kts
09-Apr-18 08:31 41.738607 -122.487096 141 10835ft 163kts
09-Apr-18 08:32 41.698068 -122.476631 176 10830ft 165kts
09-Apr-18 08:33 41.649973 -122.464682 172 9705ft 196kts
09-Apr-18 08:34 41.606843 -122.430191 121 8637ft 199kts
09-Apr-18 08:35 41.574785 -122.381579 179 6696ft 151kts
09-Apr-18 08:36 41.565452 -122.412236 302 5334ft 123kts
09-Apr-18 08:37 41.587220 -122.453795 302 5073ft 131kts
09-Apr-18 08:38 41.617150 -122.478987 349 5041ft 132kts
09-Apr-18 08:39 41.654076 -122.483259 359 4989ft 140kts
09-Apr-18 08:40 41.692415 -122.482533 5 4998ft 139kts
09-Apr-18 08:41 41.732050 -122.480754 18 4532ft 157kts
09-Apr-18 08:42 41.769596 -122.461602 30 3436ft 118kts
09-Apr-18 08:43 41.797629 -122.448112 9 3141ft 102kts
09-Apr-18 08:44 41.803604 -122.464827 172 3125ft 106kts
09-Apr-18 08:45 41.779131 -122.468734 191 2648ft 51kts
09-Apr-18 08:46 41.772708 -122.472056 284 2648ft 14kts
09-Apr-18 08:47 41.777817 -122.471043 9 2648ft 20kts
09-Apr-18 08:48 41.778359 -122.471305 89 2648ft 0kts
09-Apr-18 08:49 41.778359 -122.471305 89 2648ft 0kts
09-Apr-18 08:50 41.778359 -122.471305 89 2648ft 0kts
09-Apr-18 08:51 41.778359 -122.471305 89 2648ft 0kts
09-Apr-18 08:52 41.778359 -122.471305 89 2648ft 0kts
09-Apr-18 08:53 41.778359 -122.471305 89 2648ft 0kts
09-Apr-18 08:54 41.778359 -122.471305 89 2648ft 0kts
09-Apr-18 08:55 41.778359 -122.471305 89 2648ft 0kts
09-Apr-18 08:56 41.778359 -122.471305 89 2648ft 0kts
09-Apr-18 08:57 41.778359 -122.471305 89 2648ft 0kts
09-Apr-18 08:58 41.778359 -122.471305 89 2648ft 0kts
09-Apr-18 08:59 41.778359 -122.471305 89 2648ft 0kts
09-Apr-18 09:00 41.778359 -122.471305 89 2648ft 0kts

Navigation Log

Ident Type
Flight plan parsing failed, navigation log unavailable